createdAt,value
2018-12-16T00:02:02.099Z,-0.90
2018-12-16T00:04:33.907Z,-0.90
2018-12-16T00:07:05.841Z,-0.90
2018-12-16T00:09:35.755Z,-0.80
2018-12-16T00:12:05.769Z,-0.80
2018-12-16T00:14:35.726Z,-0.70
2018-12-16T00:17:05.717Z,-0.70
2018-12-16T00:19:35.656Z,-0.60
2018-12-16T00:22:05.779Z,-0.60
2018-12-16T00:24:35.715Z,-0.60
2018-12-16T00:27:12.755Z,-0.60
2018-12-16T00:29:42.988Z,-0.60
2018-12-16T00:32:13.067Z,-0.60
2018-12-16T00:34:43.014Z,-0.50
2018-12-16T00:37:12.965Z,-0.50
2018-12-16T00:39:42.933Z,-0.50
2018-12-16T00:42:19.766Z,-0.40
2018-12-16T00:44:49.849Z,-0.50
2018-12-16T00:47:19.865Z,-0.50
2018-12-16T00:49:49.882Z,-0.50
2018-12-16T00:52:19.918Z,-0.50
2018-12-16T00:54:49.916Z,-0.40
2018-12-16T00:57:19.911Z,-0.40
2018-12-16T00:59:49.859Z,-0.50
2018-12-16T01:02:25.163Z,-0.40
2018-12-16T01:04:55.119Z,-0.40
2018-12-16T01:07:25.130Z,-0.40
2018-12-16T01:09:55.126Z,-0.40
2018-12-16T01:12:25.110Z,-0.30
2018-12-16T01:14:55.105Z,-0.30
2018-12-16T01:17:25.112Z,-0.30
2018-12-16T01:19:55.142Z,-0.30
2018-12-16T01:22:25.078Z,-0.30
2018-12-16T01:24:55.020Z,-0.30
2018-12-16T01:27:25.095Z,-0.30
2018-12-16T01:29:55.119Z,-0.20
2018-12-16T01:32:25.053Z,-0.20
2018-12-16T01:34:55.018Z,-0.20
2018-12-16T01:37:25.036Z,-0.30
2018-12-16T01:39:55.166Z,-0.30
2018-12-16T01:42:24.977Z,-0.40
2018-12-16T01:44:54.928Z,-0.40
2018-12-16T01:47:25.894Z,-0.40
2018-12-16T01:49:55.802Z,-0.50
2018-12-16T01:52:25.789Z,-0.50
2018-12-16T01:54:55.779Z,-0.50
2018-12-16T01:57:25.873Z,-0.50
2018-12-16T01:59:55.862Z,-0.50
2018-12-16T02:02:25.879Z,-0.50
2018-12-16T02:04:55.823Z,-0.50
2018-12-16T02:07:25.843Z,-0.50
2018-12-16T02:09:55.738Z,-0.50
2018-12-16T02:12:25.768Z,-0.50
2018-12-16T02:14:55.764Z,-0.50
2018-12-16T02:17:25.789Z,-0.50
2018-12-16T02:19:55.794Z,-0.50
2018-12-16T02:22:25.811Z,-0.50
2018-12-16T02:24:55.698Z,-0.50
2018-12-16T02:27:25.651Z,-0.40
2018-12-16T02:29:55.658Z,-0.40
2018-12-16T02:32:25.650Z,-0.50
2018-12-16T02:34:55.596Z,-0.50
2018-12-16T02:37:25.627Z,-0.50
2018-12-16T02:39:55.635Z,-0.50
2018-12-16T02:42:25.636Z,-0.50
2018-12-16T02:44:55.643Z,-0.40
2018-12-16T02:47:25.666Z,-0.30
2018-12-16T02:49:55.631Z,-0.40
2018-12-16T02:52:25.635Z,-0.40
2018-12-16T02:54:55.645Z,-0.40
2018-12-16T02:57:25.583Z,-0.40
2018-12-16T02:59:55.546Z,-0.40
2018-12-16T03:02:25.492Z,-0.50
2018-12-16T03:04:55.436Z,-0.60
2018-12-16T03:07:25.439Z,-0.50
2018-12-16T03:09:55.327Z,-0.50
2018-12-16T03:12:25.346Z,-0.50
2018-12-16T03:14:55.295Z,-0.60
2018-12-16T03:17:25.414Z,-0.60
2018-12-16T03:19:55.359Z,-0.70
2018-12-16T03:22:25.254Z,-0.70
2018-12-16T03:24:55.254Z,-0.70
2018-12-16T03:27:25.255Z,-0.80
2018-12-16T03:29:55.089Z,-0.80
2018-12-16T03:32:25.079Z,-0.90
2018-12-16T03:34:55.016Z,-0.90
2018-12-16T03:37:24.943Z,-0.90
2018-12-16T03:39:54.899Z,-0.90
2018-12-16T03:42:24.866Z,-0.90
2018-12-16T03:44:54.884Z,-1.00
2018-12-16T03:47:24.771Z,-1.00
2018-12-16T03:49:54.709Z,-1.10
2018-12-16T03:52:24.662Z,-1.10
2018-12-16T03:54:54.626Z,-1.10
2018-12-16T03:57:24.568Z,-1.10
2018-12-16T03:59:54.613Z,-1.10
2018-12-16T04:02:24.563Z,-1.10
2018-12-16T04:04:54.571Z,-1.10
2018-12-16T04:07:24.577Z,-1.20
2018-12-16T04:09:54.514Z,-1.20
2018-12-16T04:12:24.457Z,-1.30
2018-12-16T04:14:54.403Z,-1.30
2018-12-16T04:17:24.403Z,-1.30
2018-12-16T04:19:54.372Z,-1.30
2018-12-16T04:22:24.394Z,-1.30
2018-12-16T04:24:54.214Z,-1.30
2018-12-16T04:27:24.227Z,-1.40
2018-12-16T04:29:54.192Z,-1.40
2018-12-16T04:32:24.165Z,-1.40
2018-12-16T04:34:54.115Z,-1.40
2018-12-16T04:37:24.086Z,-1.40
2018-12-16T04:39:54.074Z,-1.40
2018-12-16T04:42:23.983Z,-1.40
2018-12-16T04:44:53.939Z,-1.30
2018-12-16T04:47:23.891Z,-1.40
2018-12-16T04:49:53.822Z,-1.30
2018-12-16T04:52:23.753Z,-1.30
2018-12-16T04:54:53.671Z,-1.20
2018-12-16T04:57:23.644Z,-1.30
2018-12-16T04:59:53.596Z,-1.30
2018-12-16T05:02:23.679Z,-1.30
2018-12-16T05:04:53.672Z,-1.30
2018-12-16T05:07:23.578Z,-1.30
2018-12-16T05:09:54.442Z,-1.30
2018-12-16T05:12:24.284Z,-1.30
2018-12-16T05:14:54.167Z,-1.30
2018-12-16T05:17:24.036Z,-1.30
2018-12-16T05:19:53.922Z,-1.30
2018-12-16T05:22:23.806Z,-1.30
2018-12-16T05:24:53.763Z,-1.30
2018-12-16T05:27:23.686Z,-1.30
2018-12-16T05:29:53.709Z,-1.30
2018-12-16T05:32:23.682Z,-1.30
2018-12-16T05:34:53.757Z,-1.30
2018-12-16T05:37:23.774Z,-1.30
2018-12-16T05:39:53.675Z,-1.30
2018-12-16T05:42:23.730Z,-1.30
2018-12-16T05:44:53.765Z,-1.30
2018-12-16T05:47:23.858Z,-1.30
2018-12-16T05:49:53.918Z,-1.30
2018-12-16T05:52:24.623Z,-1.30
2018-12-16T05:54:54.554Z,-1.30
2018-12-16T05:57:24.522Z,-1.30
2018-12-16T05:59:54.650Z,-1.30
2018-12-16T06:02:24.601Z,-1.30
2018-12-16T06:04:54.587Z,-1.30
2018-12-16T06:07:24.402Z,-1.30
2018-12-16T06:09:55.446Z,-1.30
2018-12-16T06:12:25.367Z,-1.30
2018-12-16T06:14:55.356Z,-1.30
2018-12-16T06:17:25.353Z,-1.30
2018-12-16T06:19:55.271Z,-1.30
2018-12-16T06:22:25.298Z,-1.30
2018-12-16T06:24:55.423Z,-1.30
2018-12-16T06:27:25.370Z,-1.30
2018-12-16T06:29:55.714Z,-1.30
2018-12-16T06:32:25.679Z,-1.30
2018-12-16T06:34:55.590Z,-1.30
2018-12-16T06:37:25.546Z,-1.30
2018-12-16T06:39:55.528Z,-1.30
2018-12-16T06:42:25.566Z,-1.30
2018-12-16T06:44:55.567Z,-1.30
2018-12-16T06:47:25.662Z,-1.20
2018-12-16T06:49:55.635Z,-1.20
2018-12-16T06:52:25.687Z,-1.20
2018-12-16T06:54:55.605Z,-1.20
2018-12-16T06:57:25.506Z,-1.10
2018-12-16T06:59:55.642Z,-1.20
2018-12-16T07:02:25.571Z,-1.20
2018-12-16T07:04:55.577Z,-1.20
2018-12-16T07:07:25.804Z,-1.10
2018-12-16T07:09:55.817Z,-1.10
2018-12-16T07:12:25.892Z,-1.10
2018-12-16T07:14:55.950Z,-1.00
2018-12-16T07:17:25.906Z,-1.00
2018-12-16T07:19:55.841Z,-1.10
2018-12-16T07:22:26.029Z,-1.10
2018-12-16T07:24:56.216Z,-1.10
2018-12-16T07:27:26.208Z,-1.10
2018-12-16T07:29:56.106Z,-1.10
2018-12-16T07:32:26.199Z,-1.10
2018-12-16T07:34:58.268Z,-1.10
2018-12-16T07:37:28.538Z,-1.10
2018-12-16T07:39:58.680Z,-1.10
2018-12-16T07:42:28.645Z,-1.10
2018-12-16T07:44:58.722Z,-1.10
2018-12-16T07:47:29.603Z,-1.00
2018-12-16T07:50:02.384Z,-1.00
2018-12-16T07:52:32.436Z,-0.90
2018-12-16T07:55:02.467Z,-1.00
2018-12-16T07:57:32.427Z,-1.00
2018-12-16T08:00:02.523Z,-1.00
2018-12-16T08:02:32.475Z,-1.00
2018-12-16T08:05:02.478Z,-0.90
2018-12-16T08:07:32.446Z,-0.90
2018-12-16T08:10:02.457Z,-0.80
2018-12-16T08:12:33.519Z,-0.80
2018-12-16T08:15:03.557Z,-0.80
2018-12-16T08:17:33.591Z,-0.70
2018-12-16T08:20:03.847Z,-0.70
2018-12-16T08:22:33.810Z,-0.70
2018-12-16T08:25:03.923Z,-0.70
2018-12-16T08:27:33.931Z,-0.70
2018-12-16T08:30:05.956Z,-0.70
2018-12-16T08:32:35.871Z,-0.60
2018-12-16T08:35:06.307Z,-0.50
2018-12-16T08:37:37.291Z,-0.50
2018-12-16T08:40:08.039Z,-0.40
2018-12-16T08:42:37.975Z,-0.30
2018-12-16T08:45:08.636Z,-0.30
2018-12-16T08:47:38.565Z,-0.30
2018-12-16T08:50:08.561Z,-0.30
2018-12-16T08:52:38.465Z,-0.30
2018-12-16T08:55:08.526Z,-0.30
2018-12-16T08:57:38.425Z,-0.20
2018-12-16T09:00:08.456Z,-0.20
2018-12-16T09:02:38.599Z,-0.10
2018-12-16T09:05:08.630Z,-0.10
2018-12-16T09:07:38.691Z,0.00
2018-12-16T09:10:09.650Z,0.00
2018-12-16T09:12:39.622Z,0.10
2018-12-16T09:15:10.010Z,0.10
2018-12-16T09:17:40.050Z,0.10
2018-12-16T09:20:10.156Z,0.20
2018-12-16T09:22:40.115Z,0.30
2018-12-16T09:25:09.830Z,0.30
2018-12-16T09:27:39.883Z,0.40
2018-12-16T09:30:11.994Z,0.40
2018-12-16T09:32:41.926Z,0.40
2018-12-16T09:35:11.848Z,0.40
2018-12-16T09:37:41.940Z,0.40
2018-12-16T09:40:12.966Z,0.50
2018-12-16T09:42:43.003Z,0.50
2018-12-16T09:45:13.112Z,0.30
2018-12-16T09:47:43.449Z,0.30
2018-12-16T09:50:13.438Z,0.30
2018-12-16T09:52:43.447Z,0.40
2018-12-16T09:55:13.588Z,0.40
2018-12-16T09:57:43.474Z,0.60
2018-12-16T10:00:13.614Z,0.60
2018-12-16T10:02:43.726Z,0.60
2018-12-16T10:05:14.020Z,0.60
2018-12-16T10:07:44.965Z,0.60
2018-12-16T10:10:15.030Z,0.60
2018-12-16T10:12:44.944Z,0.70
2018-12-16T10:15:15.032Z,0.80
2018-12-16T10:17:45.074Z,0.80
2018-12-16T10:20:15.088Z,0.80
2018-12-16T10:22:44.966Z,0.90
2018-12-16T10:25:14.874Z,1.00
2018-12-16T10:27:44.907Z,1.10
2018-12-16T10:30:14.989Z,1.20
2018-12-16T10:32:45.991Z,1.10
2018-12-16T10:35:16.170Z,1.10
2018-12-16T10:37:46.090Z,1.10
2018-12-16T10:40:16.135Z,1.00
2018-12-16T10:42:46.088Z,0.90
2018-12-16T10:45:16.124Z,0.80
2018-12-16T10:47:46.117Z,0.90
2018-12-16T10:50:16.148Z,0.80
2018-12-16T10:52:46.120Z,0.90
2018-12-16T10:55:16.318Z,0.90
2018-12-16T10:57:46.235Z,0.80
2018-12-16T11:00:21.601Z,0.80
2018-12-16T11:02:51.690Z,0.80
2018-12-16T11:05:21.894Z,0.80
2018-12-16T11:07:51.794Z,0.90
2018-12-16T11:10:21.874Z,1.00
2018-12-16T11:12:52.243Z,1.00
2018-12-16T11:15:22.136Z,0.90
2018-12-16T11:17:51.989Z,1.00
2018-12-16T11:20:21.982Z,1.10
2018-12-16T11:22:51.955Z,1.10
2018-12-16T11:25:21.977Z,1.20
2018-12-16T11:27:51.950Z,1.20
2018-12-16T11:30:21.995Z,1.10
2018-12-16T11:32:51.922Z,0.90
2018-12-16T11:35:21.800Z,0.90
2018-12-16T11:37:51.859Z,0.80
2018-12-16T11:40:21.806Z,0.80
2018-12-16T11:42:53.005Z,0.90
2018-12-16T11:45:22.943Z,0.80
2018-12-16T11:47:54.243Z,0.90
2018-12-16T11:50:24.324Z,0.90
2018-12-16T11:52:54.246Z,0.90
2018-12-16T11:55:24.197Z,0.90
2018-12-16T11:57:54.020Z,0.90
2018-12-16T12:00:24.164Z,0.80
2018-12-16T12:02:53.965Z,0.80
2018-12-16T12:05:25.832Z,0.90
2018-12-16T12:07:55.634Z,0.90
2018-12-16T12:10:25.666Z,0.90
2018-12-16T12:12:55.659Z,0.90
2018-12-16T12:15:25.694Z,1.00
2018-12-16T12:17:55.702Z,1.00
2018-12-16T12:20:25.573Z,1.00
2018-12-16T12:22:55.584Z,1.00
2018-12-16T12:25:25.462Z,0.90
2018-12-16T12:27:55.471Z,0.90
2018-12-16T12:30:25.451Z,0.90
2018-12-16T12:32:55.399Z,0.90
2018-12-16T12:35:25.315Z,1.00
2018-12-16T12:37:55.245Z,0.90
2018-12-16T12:40:25.182Z,0.90
2018-12-16T12:42:55.123Z,1.10
2018-12-16T12:45:25.010Z,1.10
2018-12-16T12:47:54.953Z,1.20
2018-12-16T12:50:25.906Z,1.10
2018-12-16T12:52:55.930Z,1.10
2018-12-16T12:55:26.960Z,1.00
2018-12-16T12:57:57.303Z,1.00
2018-12-16T13:00:27.171Z,1.00
2018-12-16T13:02:57.115Z,1.10
2018-12-16T13:05:27.145Z,1.10
2018-12-16T13:07:56.955Z,1.00
2018-12-16T13:10:26.858Z,1.00
2018-12-16T13:12:56.783Z,0.90
2018-12-16T13:15:26.791Z,0.80
2018-12-16T13:17:56.709Z,0.80
2018-12-16T13:20:26.694Z,0.80
2018-12-16T13:22:56.562Z,0.80
2018-12-16T13:25:43.713Z,0.80
2018-12-16T13:28:13.734Z,0.90
2018-12-16T13:30:43.810Z,0.90
2018-12-16T13:33:13.707Z,0.90
2018-12-16T13:35:43.651Z,0.90
2018-12-16T13:38:13.754Z,0.90
2018-12-16T13:40:43.849Z,1.00
2018-12-16T13:43:13.736Z,1.10
2018-12-16T13:45:43.718Z,1.10
2018-12-16T13:48:13.603Z,1.00
2018-12-16T13:50:43.702Z,1.00
2018-12-16T13:53:13.670Z,1.00
2018-12-16T13:55:44.083Z,1.00
2018-12-16T13:58:13.989Z,1.10
2018-12-16T14:00:44.092Z,1.00
2018-12-16T14:03:14.032Z,1.00
2018-12-16T14:05:46.811Z,1.00
2018-12-16T14:08:16.084Z,0.90
2018-12-16T14:10:46.086Z,0.90
2018-12-16T14:13:15.966Z,0.90
2018-12-16T14:15:52.121Z,0.80
2018-12-16T14:18:17.894Z,0.80
2018-12-16T14:20:47.912Z,0.70
2018-12-16T14:23:17.930Z,0.70
2018-12-16T14:25:48.273Z,0.70
2018-12-16T14:28:18.342Z,0.60
2018-12-16T14:30:49.603Z,0.60
2018-12-16T14:33:19.520Z,0.60
2018-12-16T14:35:49.534Z,0.60
2018-12-16T14:38:19.823Z,0.50
2018-12-16T14:40:49.707Z,0.50
2018-12-16T14:43:19.607Z,0.50
2018-12-16T14:45:49.706Z,0.40
2018-12-16T14:48:19.726Z,0.40
2018-12-16T14:50:49.742Z,0.50
2018-12-16T14:53:19.658Z,0.50
2018-12-16T14:55:55.144Z,0.40
2018-12-16T14:58:21.636Z,0.60
2018-12-16T15:00:51.651Z,0.50
2018-12-16T15:03:21.557Z,0.50
2018-12-16T15:05:51.570Z,0.50
2018-12-16T15:08:21.872Z,0.50
2018-12-16T15:10:51.710Z,0.50
2018-12-16T15:13:21.739Z,0.40
2018-12-16T15:15:51.695Z,0.40
2018-12-16T15:18:21.687Z,0.40
2018-12-16T15:20:51.735Z,0.40
2018-12-16T15:23:21.924Z,0.40
2018-12-16T15:25:51.874Z,0.30
2018-12-16T15:28:21.945Z,0.30
2018-12-16T15:30:52.211Z,0.30
2018-12-16T15:33:22.179Z,0.30
2018-12-16T15:35:52.195Z,0.30
2018-12-16T15:38:22.303Z,0.30
2018-12-16T15:40:52.330Z,0.30
2018-12-16T15:43:22.342Z,0.30
2018-12-16T15:45:52.355Z,0.40
2018-12-16T15:48:22.263Z,0.40
2018-12-16T15:50:53.121Z,0.40
2018-12-16T15:53:23.142Z,0.40
2018-12-16T15:55:53.235Z,0.40
2018-12-16T15:58:23.193Z,0.40
2018-12-16T16:00:53.254Z,0.40
2018-12-16T16:03:23.097Z,0.40
2018-12-16T16:05:53.190Z,0.30
2018-12-16T16:08:23.140Z,0.30
2018-12-16T16:10:53.110Z,0.40
2018-12-16T16:13:23.045Z,0.40
2018-12-16T16:15:53.076Z,0.40
2018-12-16T16:18:23.042Z,0.40
2018-12-16T16:20:52.991Z,0.40
2018-12-16T16:23:22.958Z,0.40
2018-12-16T16:25:53.020Z,0.40
2018-12-16T16:28:23.139Z,0.40
2018-12-16T16:30:54.342Z,0.30
2018-12-16T16:33:24.712Z,0.30
2018-12-16T16:35:54.579Z,0.30
2018-12-16T16:38:24.639Z,0.30
2018-12-16T16:40:55.059Z,0.30
2018-12-16T16:43:25.115Z,0.30
2018-12-16T16:45:55.203Z,0.20
2018-12-16T16:48:25.338Z,0.20
2018-12-16T16:50:55.336Z,0.30
2018-12-16T16:53:25.402Z,0.30
2018-12-16T16:55:55.423Z,0.30
2018-12-16T16:58:25.437Z,0.30
2018-12-16T17:00:55.372Z,0.30
2018-12-16T17:03:25.316Z,0.30
2018-12-16T17:05:55.404Z,0.40
2018-12-16T17:08:25.551Z,0.40
2018-12-16T17:10:55.746Z,0.40
2018-12-16T17:13:25.812Z,0.40
2018-12-16T17:15:56.687Z,0.30
2018-12-16T17:18:26.651Z,0.30
2018-12-16T17:20:56.740Z,0.30
2018-12-16T17:23:26.770Z,0.30
2018-12-16T17:25:56.781Z,0.40
2018-12-16T17:28:27.097Z,0.40
2018-12-16T17:30:57.090Z,0.40
2018-12-16T17:33:27.153Z,0.40
2018-12-16T17:35:57.229Z,0.40
2018-12-16T17:38:27.395Z,0.40
2018-12-16T17:40:57.270Z,0.40
2018-12-16T17:43:27.220Z,0.50
2018-12-16T17:45:57.146Z,0.40
2018-12-16T17:48:27.139Z,0.40
2018-12-16T17:50:57.223Z,0.40
2018-12-16T17:53:27.187Z,0.30
2018-12-16T17:55:57.634Z,0.40
2018-12-16T17:58:27.601Z,0.40
2018-12-16T18:00:57.483Z,0.40
2018-12-16T18:03:27.407Z,0.40
2018-12-16T18:05:57.458Z,0.40
2018-12-16T18:08:27.394Z,0.40
2018-12-16T18:10:57.791Z,0.40
2018-12-16T18:13:27.823Z,0.40
2018-12-16T18:15:57.830Z,0.40
2018-12-16T18:18:27.914Z,0.40
2018-12-16T18:20:57.918Z,0.40
2018-12-16T18:23:29.713Z,0.40
2018-12-16T18:25:59.886Z,0.40
2018-12-16T18:28:29.867Z,0.40
2018-12-16T18:30:59.978Z,0.40
2018-12-16T18:33:30.103Z,0.40
2018-12-16T18:36:00.140Z,0.40
2018-12-16T18:38:30.132Z,0.40
2018-12-16T18:41:00.150Z,0.40
2018-12-16T18:43:30.275Z,0.40
2018-12-16T18:46:00.391Z,0.30
2018-12-16T18:48:30.293Z,0.40
2018-12-16T18:51:00.419Z,0.40
2018-12-16T18:53:30.317Z,0.40
2018-12-16T18:56:00.348Z,0.40
2018-12-16T18:58:30.226Z,0.40
2018-12-16T19:01:00.118Z,0.40
2018-12-16T19:03:30.006Z,0.50
2018-12-16T19:05:59.915Z,0.50
2018-12-16T19:08:29.791Z,0.60
2018-12-16T19:10:59.834Z,0.60
2018-12-16T19:13:29.715Z,0.60
2018-12-16T19:15:59.615Z,0.60
2018-12-16T19:18:29.987Z,0.60
2018-12-16T19:21:00.321Z,0.60
2018-12-16T19:23:30.321Z,0.60
2018-12-16T19:26:00.339Z,0.60
2018-12-16T19:28:30.361Z,0.70
2018-12-16T19:31:00.354Z,0.70
2018-12-16T19:33:30.383Z,0.70
2018-12-16T19:36:00.418Z,0.70
2018-12-16T19:38:30.335Z,0.70
2018-12-16T19:41:00.288Z,0.80
2018-12-16T19:43:30.259Z,0.80
2018-12-16T19:46:00.145Z,0.80
2018-12-16T19:48:30.358Z,0.80
2018-12-16T19:51:00.240Z,0.80
2018-12-16T19:53:30.188Z,0.90
2018-12-16T19:56:00.114Z,0.90
2018-12-16T19:58:30.571Z,0.90
2018-12-16T20:01:00.598Z,0.90
2018-12-16T20:03:31.947Z,0.90
2018-12-16T20:06:07.380Z,0.90
2018-12-16T20:08:37.503Z,0.80
2018-12-16T20:11:07.490Z,0.80
2018-12-16T20:13:37.526Z,0.90
2018-12-16T20:16:07.626Z,0.90
2018-12-16T20:18:37.520Z,0.90
2018-12-16T20:21:07.455Z,0.90
2018-12-16T20:23:37.370Z,0.90
2018-12-16T20:26:07.392Z,0.90
2018-12-16T20:28:37.291Z,1.00
2018-12-16T20:31:07.427Z,1.00
2018-12-16T20:33:37.507Z,1.00
2018-12-16T20:36:07.551Z,1.00
2018-12-16T20:38:37.622Z,1.10
2018-12-16T20:41:07.559Z,1.10
2018-12-16T20:43:37.428Z,1.10
2018-12-16T20:46:07.702Z,1.10
2018-12-16T20:48:37.736Z,1.10
2018-12-16T20:53:50.613Z,1.10
2018-12-16T20:56:20.791Z,1.10
2018-12-16T20:58:50.898Z,1.10
2018-12-16T21:01:20.905Z,1.10
2018-12-16T21:03:50.839Z,1.10
2018-12-16T21:06:21.983Z,1.10
2018-12-16T21:08:52.010Z,1.10
2018-12-16T21:12:26.122Z,1.10
2018-12-16T21:15:01.379Z,1.10
2018-12-16T21:17:37.615Z,1.10
2018-12-16T21:20:08.192Z,1.10
2018-12-16T21:22:38.187Z,1.20
2018-12-16T21:25:08.804Z,1.20
2018-12-16T21:27:38.703Z,1.20
2018-12-16T21:30:09.045Z,1.10
2018-12-16T21:32:39.043Z,1.10
2018-12-16T21:35:09.151Z,1.10
2018-12-16T21:37:39.061Z,1.10
2018-12-16T21:40:09.110Z,1.10
2018-12-16T21:42:39.230Z,1.10
2018-12-16T21:45:09.326Z,1.00
2018-12-16T21:47:39.366Z,0.90
2018-12-16T21:50:09.458Z,0.90
2018-12-16T21:52:39.370Z,0.90
2018-12-16T21:55:09.732Z,1.00
2018-12-16T21:57:39.810Z,0.90
2018-12-16T22:00:10.790Z,1.00
2018-12-16T22:02:41.840Z,1.10
2018-12-16T22:05:13.654Z,1.20
2018-12-16T22:07:44.943Z,1.20
2018-12-16T22:10:15.036Z,1.20
2018-12-16T22:12:45.126Z,1.30
2018-12-16T22:15:15.258Z,1.40
2018-12-16T22:17:45.114Z,1.40
2018-12-16T22:20:15.167Z,1.40
2018-12-16T22:22:45.292Z,1.50
2018-12-16T22:25:15.321Z,1.50
2018-12-16T22:27:45.445Z,1.50
2018-12-16T22:30:15.459Z,1.60
2018-12-16T22:32:45.539Z,1.60
2018-12-16T22:35:15.486Z,1.60
2018-12-16T22:37:45.453Z,1.60
2018-12-16T22:40:15.727Z,1.70
2018-12-16T22:42:45.740Z,1.60
2018-12-16T22:45:15.745Z,1.60
2018-12-16T22:47:45.780Z,1.60
2018-12-16T22:50:15.710Z,1.60
2018-12-16T22:52:45.706Z,1.60
2018-12-16T22:55:15.631Z,1.50
2018-12-16T22:57:47.140Z,1.60
2018-12-16T23:00:18.150Z,1.60
2018-12-16T23:02:50.179Z,1.60
2018-12-16T23:05:20.428Z,1.60
2018-12-16T23:07:50.521Z,1.60
2018-12-16T23:10:20.559Z,1.70
2018-12-16T23:12:50.651Z,1.70
2018-12-16T23:15:20.771Z,1.70
2018-12-16T23:17:50.673Z,1.70
2018-12-16T23:20:22.682Z,1.80
2018-12-16T23:22:52.565Z,1.80
2018-12-16T23:25:22.407Z,1.80
2018-12-16T23:27:54.247Z,1.70
2018-12-16T23:30:24.663Z,1.70
2018-12-16T23:32:54.557Z,1.70
2018-12-16T23:35:24.446Z,1.70
2018-12-16T23:37:54.507Z,1.80
2018-12-16T23:40:24.625Z,1.80
2018-12-16T23:42:54.631Z,1.70
2018-12-16T23:45:24.762Z,1.80
2018-12-16T23:47:54.766Z,1.70
2018-12-16T23:50:24.710Z,1.70
2018-12-16T23:52:54.717Z,1.70
2018-12-16T23:55:24.795Z,1.70
2018-12-16T23:58:00.903Z,1.70
